createdAt,value
2022-09-02T00:01:55.693Z,16.67
2022-09-02T00:04:26.924Z,16.65
2022-09-02T00:06:55.053Z,16.62
2022-09-02T00:09:26.000Z,16.57
2022-09-02T00:11:56.201Z,16.61
2022-09-02T00:14:33.619Z,16.57
2022-09-02T00:17:01.442Z,16.59
2022-09-02T00:19:31.496Z,16.57
2022-09-02T00:22:02.271Z,16.59
2022-09-02T00:24:31.562Z,16.59
2022-09-02T00:26:58.999Z,16.58
2022-09-02T00:29:28.954Z,16.55
2022-09-02T00:31:57.202Z,16.57
2022-09-02T00:34:26.282Z,16.48
2022-09-02T00:36:54.381Z,16.55
2022-09-02T00:39:21.689Z,16.55
2022-09-02T00:41:49.085Z,16.55
2022-09-02T00:44:19.894Z,16.54
2022-09-02T00:46:48.084Z,16.54
2022-09-02T00:49:33.117Z,16.49
2022-09-02T00:52:09.333Z,16.50
2022-09-02T00:54:46.958Z,16.47
2022-09-02T00:57:19.732Z,16.39
2022-09-02T00:59:56.994Z,16.44
2022-09-02T01:02:26.279Z,16.42
2022-09-02T01:04:56.882Z,16.39
2022-09-02T01:07:28.676Z,16.32
2022-09-02T01:09:57.857Z,16.34
2022-09-02T01:12:27.353Z,16.36
2022-09-02T01:14:54.590Z,16.34
2022-09-02T01:17:21.787Z,16.36
2022-09-02T01:19:57.084Z,16.29
2022-09-02T01:22:28.953Z,16.34
2022-09-02T01:25:03.904Z,16.33
2022-09-02T01:27:31.018Z,16.30
2022-09-02T01:30:01.037Z,16.30
2022-09-02T01:32:30.806Z,16.30
2022-09-02T01:34:58.101Z,16.27
2022-09-02T01:37:25.992Z,16.27
2022-09-02T01:39:53.310Z,16.26
2022-09-02T01:42:21.827Z,16.23
2022-09-02T01:44:49.014Z,16.20
2022-09-02T01:47:24.260Z,16.21
2022-09-02T01:49:52.240Z,16.12
2022-09-02T01:52:22.496Z,16.15
2022-09-02T01:54:50.070Z,16.13
2022-09-02T01:57:17.187Z,16.04
2022-09-02T01:59:46.124Z,16.01
2022-09-02T02:02:16.359Z,16.00
2022-09-02T02:04:44.243Z,15.98
2022-09-02T02:07:14.330Z,15.95
2022-09-02T02:09:43.511Z,15.86
2022-09-02T02:12:11.057Z,15.97
2022-09-02T02:14:38.133Z,15.96
2022-09-02T02:17:05.657Z,15.98
2022-09-02T02:19:33.567Z,15.95
2022-09-02T02:22:01.114Z,15.87
2022-09-02T02:24:28.960Z,15.86
2022-09-02T02:26:56.408Z,15.72
2022-09-02T02:29:24.044Z,15.86
2022-09-02T02:31:51.288Z,15.81
2022-09-02T02:34:18.490Z,15.81
2022-09-02T02:36:46.020Z,15.80
2022-09-02T02:39:13.587Z,15.84
2022-09-02T02:41:44.902Z,15.81
2022-09-02T02:44:12.154Z,15.74
2022-09-02T02:46:39.376Z,15.79
2022-09-02T02:49:07.131Z,15.73
2022-09-02T02:51:35.025Z,15.75
2022-09-02T02:54:03.276Z,15.74
2022-09-02T02:56:31.546Z,15.74
2022-09-02T02:59:01.386Z,15.67
2022-09-02T03:01:31.000Z,15.68
2022-09-02T03:03:58.964Z,15.67
2022-09-02T03:06:26.540Z,15.66
2022-09-02T03:08:54.170Z,15.64
2022-09-02T03:11:22.648Z,15.57
2022-09-02T03:13:53.078Z,15.61
2022-09-02T03:16:21.431Z,15.58
2022-09-02T03:18:51.097Z,15.55
2022-09-02T03:21:19.168Z,15.52
2022-09-02T03:23:47.396Z,15.50
2022-09-02T03:26:24.154Z,15.48
2022-09-02T03:28:51.924Z,15.45
2022-09-02T03:31:23.948Z,15.45
2022-09-02T03:33:51.565Z,15.44
2022-09-02T03:36:26.255Z,15.43
2022-09-02T03:38:53.937Z,15.39
2022-09-02T03:41:21.209Z,15.34
2022-09-02T03:43:49.188Z,15.36
2022-09-02T03:46:16.729Z,15.34
2022-09-02T03:48:45.505Z,15.27
2022-09-02T03:51:13.019Z,15.30
2022-09-02T03:53:40.148Z,15.29
2022-09-02T03:56:12.715Z,15.27
2022-09-02T03:58:43.163Z,15.26
2022-09-02T04:01:20.379Z,15.19
2022-09-02T04:03:47.655Z,15.18
2022-09-02T04:06:18.571Z,15.25
2022-09-02T04:08:46.450Z,15.24
2022-09-02T04:11:20.655Z,15.26
2022-09-02T04:13:50.052Z,15.27
2022-09-02T04:16:28.913Z,15.27
2022-09-02T04:19:01.941Z,15.28
2022-09-02T04:21:33.302Z,15.30
2022-09-02T04:24:00.838Z,15.30
2022-09-02T04:26:28.098Z,15.31
2022-09-02T04:28:55.684Z,15.31
2022-09-02T04:31:25.948Z,15.31
2022-09-02T04:33:53.910Z,15.24
2022-09-02T04:36:22.664Z,15.28
2022-09-02T04:38:53.219Z,15.25
2022-09-02T04:41:26.271Z,15.24
2022-09-02T04:43:56.947Z,15.23
2022-09-02T04:46:28.067Z,15.27
2022-09-02T04:49:02.245Z,15.34
2022-09-02T04:51:29.866Z,15.38
2022-09-02T04:53:57.437Z,15.46
2022-09-02T04:56:29.716Z,15.66
2022-09-02T04:58:57.051Z,15.81
2022-09-02T05:01:29.786Z,16.01
2022-09-02T05:03:57.039Z,16.06
2022-09-02T05:06:27.845Z,16.34
2022-09-02T05:08:58.164Z,16.50
2022-09-02T05:11:29.626Z,16.69
2022-09-02T05:14:01.869Z,16.84
2022-09-02T05:16:36.669Z,16.99
2022-09-02T05:19:07.116Z,17.14
2022-09-02T05:21:34.180Z,17.28
2022-09-02T05:24:01.711Z,17.40
2022-09-02T05:26:28.761Z,17.42
2022-09-02T05:28:55.739Z,17.35
2022-09-02T05:31:23.252Z,17.24
2022-09-02T05:33:51.345Z,17.15
2022-09-02T05:36:22.138Z,17.05
2022-09-02T05:38:51.891Z,16.98
2022-09-02T05:41:23.538Z,16.91
2022-09-02T05:43:55.416Z,16.79
2022-09-02T05:46:25.882Z,16.71
2022-09-02T05:49:08.857Z,16.59
2022-09-02T05:51:46.047Z,16.56
2022-09-02T05:54:25.456Z,16.46
2022-09-02T05:56:58.113Z,16.42
2022-09-02T05:59:30.070Z,16.36
2022-09-02T06:01:58.608Z,16.32
2022-09-02T06:04:26.894Z,16.27
2022-09-02T06:06:54.491Z,16.21
2022-09-02T06:09:24.123Z,16.26
2022-09-02T06:11:52.684Z,16.24
2022-09-02T06:14:25.137Z,16.29
2022-09-02T06:16:54.967Z,16.30
2022-09-02T06:19:25.308Z,16.37
2022-09-02T06:21:54.519Z,16.40
2022-09-02T06:24:22.170Z,16.41
2022-09-02T06:26:49.467Z,16.45
2022-09-02T06:29:17.069Z,16.47
2022-09-02T06:31:48.520Z,16.51
2022-09-02T06:34:21.008Z,16.55
2022-09-02T06:36:50.692Z,16.61
2022-09-02T06:39:21.716Z,16.64
2022-09-02T06:41:49.252Z,16.64
2022-09-02T06:44:21.547Z,16.73
2022-09-02T06:46:57.058Z,16.78
2022-09-02T06:49:27.121Z,16.83
2022-09-02T06:51:56.684Z,16.90
2022-09-02T06:54:24.609Z,16.96
2022-09-02T06:56:52.705Z,17.01
2022-09-02T06:59:21.653Z,17.14
2022-09-02T07:01:49.924Z,17.27
2022-09-02T07:04:37.004Z,17.38
2022-09-02T07:07:07.356Z,17.53
2022-09-02T07:09:34.535Z,17.58
2022-09-02T07:12:05.791Z,17.74
2022-09-02T07:14:42.088Z,17.92
2022-09-02T07:17:17.538Z,18.07
2022-09-02T07:19:44.871Z,18.21
2022-09-02T07:22:11.915Z,18.31
2022-09-02T07:24:42.555Z,18.44
2022-09-02T07:27:11.196Z,18.52
2022-09-02T07:29:38.698Z,18.64
2022-09-02T07:32:06.236Z,18.73
2022-09-02T07:34:34.041Z,18.79
2022-09-02T07:37:05.039Z,18.80
2022-09-02T07:39:33.355Z,18.81
2022-09-02T07:42:01.905Z,18.90
2022-09-02T07:44:28.970Z,18.91
2022-09-02T07:46:56.244Z,19.05
2022-09-02T07:49:24.392Z,19.11
2022-09-02T07:51:52.444Z,19.16
2022-09-02T07:54:23.856Z,19.26
2022-09-02T07:56:51.960Z,19.36
2022-09-02T07:59:21.996Z,19.37
2022-09-02T08:01:49.842Z,19.48
2022-09-02T08:04:21.214Z,19.59
2022-09-02T08:06:48.325Z,19.65
2022-09-02T08:09:15.562Z,19.73
2022-09-02T08:11:47.530Z,19.79
2022-09-02T08:14:21.542Z,19.82
2022-09-02T08:16:48.992Z,19.81
2022-09-02T08:19:16.705Z,19.81
2022-09-02T08:21:44.650Z,19.79
2022-09-02T08:24:11.991Z,19.84
2022-09-02T08:26:39.115Z,19.88
2022-09-02T08:29:08.621Z,19.89
2022-09-02T08:31:44.575Z,19.83
2022-09-02T08:34:14.168Z,19.92
2022-09-02T08:36:56.232Z,19.97
2022-09-02T08:39:25.073Z,19.99
2022-09-02T08:42:21.600Z,20.05
2022-09-02T08:44:56.385Z,20.10
2022-09-02T08:47:32.395Z,20.18
2022-09-02T08:50:06.617Z,20.23
2022-09-02T08:52:54.110Z,20.28
2022-09-02T08:55:42.924Z,20.27
2022-09-02T08:58:11.358Z,20.36
2022-09-02T09:00:43.988Z,20.39
2022-09-02T09:03:29.797Z,20.36
2022-09-02T09:06:34.727Z,20.48
2022-09-02T09:09:23.012Z,20.53
2022-09-02T09:11:55.421Z,20.62
2022-09-02T09:14:46.374Z,20.66
2022-09-02T09:17:37.826Z,20.40
2022-09-02T09:20:17.034Z,20.71
2022-09-02T09:22:44.382Z,20.75
2022-09-02T09:25:17.273Z,20.78
2022-09-02T09:27:46.160Z,20.72
2022-09-02T09:30:15.458Z,20.82
2022-09-02T09:32:54.878Z,20.74
2022-09-02T09:35:23.261Z,20.84
2022-09-02T09:37:54.396Z,20.82
2022-09-02T09:40:30.947Z,20.86
2022-09-02T09:43:14.276Z,20.85
2022-09-02T09:45:51.899Z,20.89
2022-09-02T09:48:30.641Z,19.94
2022-09-02T09:50:57.767Z,20.92
2022-09-02T09:53:28.170Z,20.95
2022-09-02T09:56:21.715Z,20.99
2022-09-02T09:58:51.110Z,21.01
2022-09-02T10:01:31.898Z,21.05
2022-09-02T10:04:42.429Z,21.06
2022-09-02T10:07:16.099Z,21.10
2022-09-02T10:09:44.652Z,21.01
2022-09-02T10:12:13.671Z,20.97
2022-09-02T10:14:48.594Z,21.14
2022-09-02T10:17:40.347Z,21.16
2022-09-02T10:20:53.147Z,21.22
2022-09-02T10:23:56.096Z,21.29
2022-09-02T10:26:56.852Z,21.27
2022-09-02T10:29:39.638Z,21.35
2022-09-02T10:32:16.033Z,21.37
2022-09-02T10:35:04.688Z,21.39
2022-09-02T10:37:57.126Z,21.41
2022-09-02T10:40:45.313Z,21.45
2022-09-02T10:43:56.760Z,21.47
2022-09-02T10:46:26.278Z,21.42
2022-09-02T10:49:34.667Z,21.54
2022-09-02T10:52:41.657Z,21.55
2022-09-02T10:56:03.928Z,21.57
2022-09-02T10:59:06.135Z,21.53
2022-09-02T11:01:55.256Z,21.55
2022-09-02T11:04:48.439Z,21.58
2022-09-02T11:07:37.057Z,21.59
2022-09-02T11:10:28.914Z,21.59
2022-09-02T11:13:16.956Z,21.51
2022-09-02T11:15:57.735Z,21.61
2022-09-02T11:18:50.892Z,21.61
2022-09-02T11:22:01.615Z,21.57
2022-09-02T11:24:58.945Z,21.61
2022-09-02T11:28:04.630Z,21.71
2022-09-02T11:31:08.031Z,21.61
2022-09-02T11:34:39.478Z,21.76
2022-09-02T11:37:11.172Z,21.65
2022-09-02T11:39:59.165Z,21.73
2022-09-02T11:43:22.139Z,21.77
2022-09-02T11:46:19.715Z,21.79
2022-09-02T11:49:24.765Z,21.82
2022-09-02T11:52:06.536Z,21.65
2022-09-02T11:54:45.533Z,21.59
2022-09-02T11:57:25.811Z,21.76
2022-09-02T11:59:53.013Z,21.91
2022-09-02T12:07:29.839Z,21.99
2022-09-02T12:10:02.824Z,21.90
2022-09-02T12:12:39.059Z,21.99
2022-09-02T12:15:06.676Z,21.99
2022-09-02T12:17:43.944Z,22.00
2022-09-02T12:20:42.647Z,22.01
2022-09-02T12:23:53.782Z,21.98
2022-09-02T12:26:52.854Z,21.98
2022-09-02T12:29:20.564Z,22.00
2022-09-02T12:31:51.389Z,22.04
2022-09-02T12:34:21.516Z,22.08
2022-09-02T12:36:55.312Z,22.10
2022-09-02T12:39:25.409Z,22.12
2022-09-02T12:42:07.500Z,22.14
2022-09-02T12:47:57.103Z,22.16
2022-09-02T12:50:36.045Z,22.19
2022-09-02T12:53:32.415Z,22.12
2022-09-02T12:56:13.110Z,22.20
2022-09-02T12:58:48.242Z,22.15
2022-09-02T13:01:27.651Z,22.25
2022-09-02T13:04:33.032Z,22.27
2022-09-02T13:07:05.296Z,22.28
2022-09-02T13:09:53.434Z,22.30
2022-09-02T13:13:25.578Z,22.31
2022-09-02T13:16:13.397Z,22.32
2022-09-02T13:19:20.665Z,22.30
2022-09-02T13:22:13.828Z,22.30
2022-09-02T13:25:29.166Z,22.35
2022-09-02T13:28:37.195Z,22.30
2022-09-02T13:31:27.770Z,22.45
2022-09-02T13:34:10.909Z,22.43
2022-09-02T13:36:44.162Z,22.49
2022-09-02T13:39:26.100Z,22.49
2022-09-02T13:41:54.406Z,22.50
2022-09-02T13:44:25.351Z,22.39
2022-09-02T13:47:12.382Z,22.49
2022-09-02T13:49:43.069Z,22.36
2022-09-02T13:53:00.962Z,22.44
2022-09-02T13:55:15.589Z,22.51
2022-09-02T13:58:10.608Z,22.53
2022-09-02T14:00:41.508Z,22.39
2022-09-02T14:03:15.165Z,22.37
2022-09-02T14:05:47.834Z,22.35
2022-09-02T14:08:21.748Z,22.40
2022-09-02T14:10:52.737Z,22.33
2022-09-02T14:13:23.494Z,22.32
2022-09-02T14:15:50.695Z,22.34
2022-09-02T14:18:21.826Z,22.31
2022-09-02T14:21:19.394Z,22.25
2022-09-02T14:23:52.322Z,22.21
2022-09-02T14:26:44.168Z,22.17
2022-09-02T14:29:19.999Z,22.12
2022-09-02T14:32:06.222Z,22.13
2022-09-02T14:34:41.317Z,22.15
2022-09-02T14:37:46.985Z,22.12
2022-09-02T14:40:13.978Z,22.16
2022-09-02T14:42:57.249Z,22.19
2022-09-02T14:45:34.370Z,22.25
2022-09-02T14:48:17.629Z,22.21
2022-09-02T14:50:44.665Z,22.14
2022-09-02T14:53:19.107Z,22.06
2022-09-02T14:55:55.281Z,22.19
2022-09-02T14:58:27.116Z,22.17
2022-09-02T15:01:01.403Z,22.22
2022-09-02T15:03:31.213Z,22.26
2022-09-02T15:05:58.444Z,22.21
2022-09-02T15:08:26.028Z,22.31
2022-09-02T15:10:58.032Z,22.23
2022-09-02T15:13:32.498Z,22.30
2022-09-02T15:16:00.009Z,22.32
2022-09-02T15:18:27.293Z,22.31
2022-09-02T15:20:57.798Z,22.32
2022-09-02T15:23:25.534Z,22.26
2022-09-02T15:25:54.709Z,22.22
2022-09-02T15:28:21.921Z,22.20
2022-09-02T15:30:49.078Z,22.14
2022-09-02T15:33:17.447Z,22.20
2022-09-02T15:35:47.515Z,22.16
2022-09-02T15:38:14.801Z,22.14
2022-09-02T15:40:45.203Z,22.23
2022-09-02T15:43:14.021Z,22.17
2022-09-02T15:45:50.849Z,22.26
2022-09-02T15:48:17.927Z,22.22
2022-09-02T15:50:46.433Z,22.07
2022-09-02T15:53:15.902Z,22.18
2022-09-02T15:55:43.077Z,22.08
2022-09-02T15:58:10.190Z,21.87
2022-09-02T16:00:37.666Z,21.83
2022-09-02T16:03:04.731Z,21.86
2022-09-02T16:05:32.378Z,21.78
2022-09-02T16:07:59.721Z,21.74
2022-09-02T16:10:27.019Z,21.76
2022-09-02T16:12:54.121Z,21.73
2022-09-02T16:15:21.134Z,21.68
2022-09-02T16:17:50.040Z,21.71
2022-09-02T16:20:20.953Z,21.74
2022-09-02T16:22:48.650Z,21.73
2022-09-02T16:25:15.689Z,21.67
2022-09-02T16:27:55.791Z,21.69
2022-09-02T16:30:23.865Z,21.70
2022-09-02T16:32:51.644Z,21.49
2022-09-02T16:35:18.809Z,21.67
2022-09-02T16:37:45.914Z,21.66
2022-09-02T16:40:21.089Z,21.57
2022-09-02T16:42:48.237Z,21.57
2022-09-02T16:45:15.348Z,21.52
2022-09-02T16:47:42.444Z,21.56
2022-09-02T16:50:12.024Z,21.50
2022-09-02T16:52:41.019Z,21.33
2022-09-02T16:55:08.589Z,21.34
2022-09-02T16:57:35.545Z,21.40
2022-09-02T17:00:04.510Z,21.42
2022-09-02T17:02:31.611Z,21.26
2022-09-02T17:04:58.673Z,21.31
2022-09-02T17:07:25.710Z,21.35
2022-09-02T17:09:52.725Z,21.29
2022-09-02T17:12:19.844Z,21.27
2022-09-02T17:14:47.209Z,21.20
2022-09-02T17:17:17.078Z,21.14
2022-09-02T17:19:44.175Z,21.00
2022-09-02T17:22:11.225Z,21.14
2022-09-02T17:24:41.814Z,21.04
2022-09-02T17:27:08.961Z,21.04
2022-09-02T17:29:51.328Z,20.86
2022-09-02T17:32:19.678Z,20.95
2022-09-02T17:34:49.569Z,20.83
2022-09-02T17:37:17.138Z,20.83
2022-09-02T17:39:46.631Z,20.66
2022-09-02T17:42:14.236Z,20.73
2022-09-02T17:44:42.565Z,20.66
2022-09-02T17:47:20.182Z,20.54
2022-09-02T17:49:48.968Z,20.56
2022-09-02T17:52:20.459Z,20.52
2022-09-02T17:54:53.925Z,20.45
2022-09-02T17:58:00.726Z,20.39
2022-09-02T18:00:28.970Z,20.24
2022-09-02T18:03:22.582Z,20.18
2022-09-02T18:06:06.906Z,20.22
2022-09-02T18:08:48.199Z,19.98
2022-09-02T18:11:16.717Z,20.05
2022-09-02T18:14:13.012Z,20.02
2022-09-02T18:17:13.144Z,19.97
2022-09-02T18:20:16.081Z,19.91
2022-09-02T18:22:57.915Z,19.85
2022-09-02T18:25:50.340Z,19.76
2022-09-02T18:28:38.733Z,19.77
2022-09-02T18:31:49.376Z,19.72
2022-09-02T18:34:30.742Z,19.72
2022-09-02T18:37:39.415Z,19.76
2022-09-02T18:40:33.845Z,19.70
2022-09-02T18:43:38.709Z,19.53
2022-09-02T18:46:08.839Z,19.55
2022-09-02T18:48:38.815Z,19.48
2022-09-02T18:51:25.085Z,19.30
2022-09-02T18:53:59.907Z,19.45
2022-09-02T18:56:34.642Z,19.43
2022-09-02T18:59:15.260Z,19.40
2022-09-02T19:01:54.726Z,19.36
2022-09-02T19:04:29.128Z,19.29
2022-09-02T19:07:16.764Z,19.14
2022-09-02T19:09:44.216Z,19.17
2022-09-02T19:12:11.699Z,19.17
2022-09-02T19:14:40.689Z,19.11
2022-09-02T19:17:09.382Z,19.11
2022-09-02T19:19:36.440Z,19.13
2022-09-02T19:22:10.374Z,18.81
2022-09-02T19:24:49.443Z,18.96
2022-09-02T19:27:23.671Z,18.96
2022-09-02T19:30:00.238Z,19.01
2022-09-02T19:32:31.709Z,18.96
2022-09-02T19:35:02.650Z,18.84
2022-09-02T19:37:29.860Z,18.87
2022-09-02T19:40:05.321Z,18.92
2022-09-02T19:42:33.163Z,18.83
2022-09-02T19:45:00.614Z,18.84
2022-09-02T19:50:15.027Z,18.78
2022-09-02T19:52:46.174Z,18.69
2022-09-02T19:55:17.573Z,18.72
2022-09-02T19:57:45.744Z,18.75
2022-09-02T20:00:14.150Z,18.72
2022-09-02T20:02:41.677Z,18.68
2022-09-02T20:05:12.142Z,18.59
2022-09-02T20:07:40.703Z,18.66
2022-09-02T20:10:09.252Z,18.64
2022-09-02T20:12:36.771Z,18.53
2022-09-02T20:15:06.715Z,18.49
2022-09-02T20:17:34.549Z,18.55
2022-09-02T20:20:16.852Z,18.54
2022-09-02T20:22:47.953Z,18.38
2022-09-02T20:25:15.753Z,18.35
2022-09-02T20:28:33.870Z,18.52
2022-09-02T20:32:04.530Z,18.46
2022-09-02T20:34:39.366Z,18.44
2022-09-02T20:37:26.660Z,18.42
2022-09-02T20:40:34.727Z,18.41
2022-09-02T20:43:14.765Z,18.36
2022-09-02T20:46:38.494Z,18.34
2022-09-02T20:49:33.100Z,18.30
2022-09-02T20:52:06.695Z,18.28
2022-09-02T20:55:01.256Z,18.27
2022-09-02T20:57:46.702Z,18.27
2022-09-02T21:00:19.908Z,18.24
2022-09-02T21:03:10.942Z,18.22
2022-09-02T21:05:50.930Z,18.00
2022-09-02T21:08:30.179Z,18.19
2022-09-02T21:11:00.615Z,18.18
2022-09-02T21:13:53.170Z,18.17
2022-09-02T21:16:28.380Z,18.16
2022-09-02T21:19:07.349Z,18.15
2022-09-02T21:22:05.744Z,18.11
2022-09-02T21:25:23.696Z,18.09
2022-09-02T21:28:07.805Z,18.06
2022-09-02T21:30:42.201Z,18.02
2022-09-02T21:33:13.186Z,18.03
2022-09-02T21:35:50.359Z,18.03
2022-09-02T21:38:45.485Z,18.02
2022-09-02T21:41:49.315Z,18.00
2022-09-02T21:45:01.805Z,17.97
2022-09-02T21:47:38.526Z,17.92
2022-09-02T21:50:10.269Z,17.83
2022-09-02T21:53:16.811Z,17.94
2022-09-02T21:55:59.367Z,17.91
2022-09-02T21:59:16.861Z,17.89
2022-09-02T22:01:59.727Z,17.87
2022-09-02T22:04:55.482Z,17.87
2022-09-02T22:07:38.965Z,17.84
2022-09-02T22:10:18.135Z,17.86
2022-09-02T22:12:52.617Z,17.81
2022-09-02T22:15:58.041Z,17.83
2022-09-02T22:18:52.217Z,17.80
2022-09-02T22:21:54.022Z,17.79
2022-09-02T22:24:27.443Z,17.77
2022-09-02T22:27:11.399Z,17.46
2022-09-02T22:29:54.655Z,17.74
2022-09-02T22:32:27.446Z,17.75
2022-09-02T22:35:09.427Z,17.73
2022-09-02T22:38:16.541Z,17.65
2022-09-02T22:40:51.569Z,17.64
2022-09-02T22:43:27.345Z,17.67
2022-09-02T22:46:35.395Z,17.58
2022-09-02T22:49:29.953Z,17.63
2022-09-02T22:52:45.115Z,17.62
2022-09-02T22:55:14.919Z,17.62
2022-09-02T22:58:09.955Z,17.58
2022-09-02T23:01:05.604Z,17.58
2022-09-02T23:04:11.599Z,17.56
2022-09-02T23:06:39.093Z,17.67
2022-09-02T23:09:11.341Z,17.67
2022-09-02T23:12:05.062Z,17.68
2022-09-02T23:15:08.525Z,17.63
2022-09-02T23:17:35.635Z,17.69
2022-09-02T23:20:25.371Z,17.64
2022-09-02T23:23:22.829Z,17.68
2022-09-02T23:26:09.487Z,17.73
2022-09-02T23:29:18.224Z,17.73
2022-09-02T23:32:03.331Z,17.71
2022-09-02T23:34:58.552Z,17.72
2022-09-02T23:37:39.692Z,17.74
2022-09-02T23:40:25.905Z,17.76
2022-09-02T23:42:54.458Z,17.75
2022-09-02T23:45:34.104Z,17.75
2022-09-02T23:48:53.272Z,17.76
2022-09-02T23:52:07.844Z,17.76
2022-09-02T23:55:00.485Z,17.77
2022-09-02T23:57:59.363Z,17.78
